Idyll Time — WDF7640 — position and weather

sailwx.info

Track history (hours):
 
Tides and Currents Weather Stations Pressure Air Temp Water Temp Dewpoint Dewpoint Depression Visibility Wind Speed Wind Dir Waves Ship Positions

Idyll Time

Owner: Parker, Jeff H, Harrison, TN. More information available from US FCC via Universal Licensing System and Coast Guard Vessel Documentation Center.

Last reported at 2018-May-30 15:26 UTC. Time now 2018-Jun-19 12:39 UTC.
Position N 54°24' W 130°37'.
Warning: this ship's position is 19 days out of date.

Type: Pleasure craft. MMSI: 338041366.

Date/timePositionNaut miles runAvg speedWind from/ knotsBaromVisibWave heightAir tempDewpointWater temp
2018-May-30 15:26N 54°24' W 130°37'4 7.8
2018-May-30 14:52N 54°20' W 130°34'3 7.8
2018-May-30 14:30N 54°17' W 130°32'4 7.9
2018-May-30 14:00N 54°14' W 130°28'4 8.6
2018-May-30 13:30N 54°10' W 130°24'4 8.6
2018-May-30 13:00N 54°06' W 130°21'4 8.5
2018-May-30 12:30N 54°03' W 130°16'2 4.4
2018-May-30 12:00N 54°01' W 130°16'0 0.0
2018-May-30 11:30N 54°01' W 130°16'0 0.0
2018-May-30 11:00N 54°01' W 130°16'0 0.0
2018-May-30 10:24N 54°01' W 130°16'0 0.0
2018-May-30 10:00N 54°01' W 130°16'0 0.0
2018-May-30 09:30N 54°01' W 130°16'0 0.0
2018-May-30 09:00N 54°01' W 130°16'0 0.0
2018-May-30 08:30N 54°01' W 130°16'0 0.0
2018-May-30 08:00N 54°01' W 130°16'0 0.0
2018-May-30 07:30N 54°01' W 130°16'0 0.0
2018-May-30 07:00N 54°01' W 130°16'0 0.0
2018-May-30 06:30N 54°01' W 130°16'0 0.0
2018-May-30 06:00N 54°01' W 130°16'0 0.0
2018-May-30 05:30N 54°01' W 130°16'0 0.0
2018-May-30 05:00N 54°01' W 130°16'0 0.0
2018-May-30 04:27N 54°01' W 130°16'0 0.0
2018-May-30 04:00N 54°01' W 130°16'0 0.0
2018-May-30 03:30N 54°01' W 130°16'0 0.0
2018-May-30 03:00N 54°01' W 130°16'0 0.0
2018-May-30 02:30N 54°01' W 130°16'0 0.0
2018-May-30 02:00N 54°01' W 130°16'0 0.0
2018-May-30 01:30N 54°01' W 130°16'0 0.0
2018-May-30 01:00N 54°01' W 130°16'0 0.0
2018-May-30 00:30N 54°01' W 130°16'0 0.0
2018-May-30 00:00N 54°01' W 130°16'0 0.0
2018-May-29 23:30N 54°01' W 130°16'1 1.0
2018-May-29 22:58N 54°01' W 130°16'1 2.4
2018-May-29 22:30N 54°01' W 130°14'5 8.0
2018-May-29 21:55N 53°57' W 130°12'3 7.8
2018-May-29 21:30N 53°54' W 130°08'  
2018-May-24 17:26N 52°01' W 127°55'9 7.2
2018-May-24 16:08N 51°52' W 127°56'2 7.2
2018-May-24 15:54N 51°50' W 127°56'3 7.1
2018-May-24 15:30N 51°47' W 127°56'3 6.2
2018-May-24 14:59N 51°44' W 127°57'3 6.6
2018-May-24 14:30N 51°41' W 127°57'3 5.1
2018-May-24 14:00N 51°39' W 128°00'3 6.8
2018-May-24 13:30N 51°39' W 128°06'1 0.1
2018-May-23 20:08N 51°39' W 128°07'0 0.3
2018-May-23 20:00N 51°39' W 128°07'3 6.3
2018-May-23 19:30N 51°39' W 128°02'4 7.7
2018-May-23 19:00N 51°39' W 127°56'3 6.5
2018-May-23 18:30N 51°36' W 127°53'4 7.4
2018-May-23 18:00N 51°33' W 127°50'5 0.2
2018-May-22 19:01N 51°29' W 127°45'0 5.4
2018-May-22 18:58N 51°29' W 127°46'27 6.3
2018-May-22 14:42N 51°02' W 127°40'3 8.1
2018-May-22 14:19N 51°00' W 127°36'3 8.0
2018-May-22 14:00N 50°59' W 127°33'4 7.6
2018-May-22 13:29N 50°56' W 127°28'4 7.3
2018-May-22 12:58N 50°54' W 127°23'3 6.8
2018-May-22 12:29N 50°54' W 127°18'1 0.0
2018-May-21 20:46N 50°54' W 127°17'  
Track history (hours):
 
Tides and Currents Weather Stations Pressure Air Temp Water Temp Dewpoint Dewpoint Depression Visibility Wind Speed Wind Dir Waves Ship Positions

Idyll Time

Owner: Parker, Jeff H, Harrison, TN. More information available from US FCC via Universal Licensing System and Coast Guard Vessel Documentation Center.

Last reported at 2018-May-30 15:26 UTC. Time now 2018-Jun-19 12:39 UTC.
Position N 54°24' W 130°37'.
Warning: this ship's position is 19 days out of date.

Type: Pleasure craft. MMSI: 338041366.

Date/timePositionNaut miles runAvg speedWind from/ knotsBaromVisibWave heightAir tempDewpointWater temp
2018-May-30 15:26N 54°24' W 130°37'4 7.8
2018-May-30 14:52N 54°20' W 130°34'3 7.8
2018-May-30 14:30N 54°17' W 130°32'4 7.9
2018-May-30 14:00N 54°14' W 130°28'4 8.6
2018-May-30 13:30N 54°10' W 130°24'4 8.6
2018-May-30 13:00N 54°06' W 130°21'4 8.5
2018-May-30 12:30N 54°03' W 130°16'2 4.4
2018-May-30 12:00N 54°01' W 130°16'0 0.0
2018-May-30 11:30N 54°01' W 130°16'0 0.0
2018-May-30 11:00N 54°01' W 130°16'0 0.0
2018-May-30 10:24N 54°01' W 130°16'0 0.0
2018-May-30 10:00N 54°01' W 130°16'0 0.0
2018-May-30 09:30N 54°01' W 130°16'0 0.0
2018-May-30 09:00N 54°01' W 130°16'0 0.0
2018-May-30 08:30N 54°01' W 130°16'0 0.0
2018-May-30 08:00N 54°01' W 130°16'0 0.0
2018-May-30 07:30N 54°01' W 130°16'0 0.0
2018-May-30 07:00N 54°01' W 130°16'0 0.0
2018-May-30 06:30N 54°01' W 130°16'0 0.0
2018-May-30 06:00N 54°01' W 130°16'0 0.0
2018-May-30 05:30N 54°01' W 130°16'0 0.0
2018-May-30 05:00N 54°01' W 130°16'0 0.0
2018-May-30 04:27N 54°01' W 130°16'0 0.0
2018-May-30 04:00N 54°01' W 130°16'0 0.0
2018-May-30 03:30N 54°01' W 130°16'0 0.0
2018-May-30 03:00N 54°01' W 130°16'0 0.0
2018-May-30 02:30N 54°01' W 130°16'0 0.0
2018-May-30 02:00N 54°01' W 130°16'0 0.0
2018-May-30 01:30N 54°01' W 130°16'0 0.0
2018-May-30 01:00N 54°01' W 130°16'0 0.0
2018-May-30 00:30N 54°01' W 130°16'0 0.0
2018-May-30 00:00N 54°01' W 130°16'0 0.0
2018-May-29 23:30N 54°01' W 130°16'1 1.0
2018-May-29 22:58N 54°01' W 130°16'1 2.4
2018-May-29 22:30N 54°01' W 130°14'5 8.0
2018-May-29 21:55N 53°57' W 130°12'3 7.8
2018-May-29 21:30N 53°54' W 130°08'  
2018-May-24 17:26N 52°01' W 127°55'9 7.2
2018-May-24 16:08N 51°52' W 127°56'2 7.2
2018-May-24 15:54N 51°50' W 127°56'3 7.1
2018-May-24 15:30N 51°47' W 127°56'3 6.2
2018-May-24 14:59N 51°44' W 127°57'3 6.6
2018-May-24 14:30N 51°41' W 127°57'3 5.1
2018-May-24 14:00N 51°39' W 128°00'3 6.8
2018-May-24 13:30N 51°39' W 128°06'1 0.1
2018-May-23 20:08N 51°39' W 128°07'0 0.3
2018-May-23 20:00N 51°39' W 128°07'3 6.3
2018-May-23 19:30N 51°39' W 128°02'4 7.7
2018-May-23 19:00N 51°39' W 127°56'3 6.5
2018-May-23 18:30N 51°36' W 127°53'4 7.4
2018-May-23 18:00N 51°33' W 127°50'5 0.2
2018-May-22 19:01N 51°29' W 127°45'0 5.4
2018-May-22 18:58N 51°29' W 127°46'27 6.3
2018-May-22 14:42N 51°02' W 127°40'3 8.1
2018-May-22 14:19N 51°00' W 127°36'3 8.0
2018-May-22 14:00N 50°59' W 127°33'4 7.6
2018-May-22 13:29N 50°56' W 127°28'4 7.3
2018-May-22 12:58N 50°54' W 127°23'3 6.8
2018-May-22 12:29N 50°54' W 127°18'1 0.0
2018-May-21 20:46N 50°54' W 127°17'  

Dump ship's entire track history